createdAt,value
2018-12-13T00:01:34.726Z,24.60
2018-12-13T00:03:09.672Z,24.52
2018-12-13T00:04:44.610Z,22.67
2018-12-13T00:06:19.569Z,24.07
2018-12-13T00:07:54.451Z,23.42
2018-12-13T00:09:29.389Z,24.82
2018-12-13T00:11:04.309Z,24.20
2018-12-13T00:12:39.240Z,25.50
2018-12-13T00:14:14.211Z,23.45
2018-12-13T00:15:49.207Z,23.70
2018-12-13T00:17:24.136Z,24.00
2018-12-13T00:18:59.091Z,23.15
2018-12-13T00:20:34.095Z,22.55
2018-12-13T00:22:09.018Z,24.10
2018-12-13T00:23:43.986Z,23.07
2018-12-13T00:25:18.887Z,23.92
2018-12-13T00:26:53.851Z,22.62
2018-12-13T00:28:28.761Z,23.30
2018-12-13T00:30:03.671Z,22.40
2018-12-13T00:31:38.885Z,23.02
2018-12-13T00:33:13.811Z,24.75
2018-12-13T00:34:48.763Z,25.35
2018-12-13T00:36:23.683Z,23.67
2018-12-13T00:37:58.810Z,24.12
2018-12-13T00:39:33.739Z,25.97
2018-12-13T00:41:08.632Z,23.52
2018-12-13T00:42:43.551Z,24.75
2018-12-13T00:44:18.477Z,26.35
2018-12-13T00:45:53.379Z,25.72
2018-12-13T00:47:28.303Z,26.25
2018-12-13T00:49:03.215Z,25.90
2018-12-13T00:50:38.254Z,27.62
2018-12-13T00:52:19.300Z,28.15
2018-12-13T00:53:54.178Z,26.02
2018-12-13T00:55:29.078Z,25.68
2018-12-13T00:57:04.016Z,26.05
2018-12-13T00:58:39.027Z,25.62
2018-12-13T01:00:14.102Z,25.27
2018-12-13T01:01:49.066Z,24.72
2018-12-13T01:03:24.007Z,25.60
2018-12-13T01:04:59.019Z,25.15
2018-12-13T01:06:33.990Z,25.52
2018-12-13T01:08:09.116Z,23.15
2018-12-13T01:09:44.001Z,24.63
2018-12-13T01:11:18.967Z,25.23
2018-12-13T01:12:53.915Z,24.75
2018-12-13T01:14:28.839Z,25.65
2018-12-13T01:16:03.863Z,24.92
2018-12-13T01:17:39.109Z,25.10
2018-12-13T01:19:14.020Z,26.95
2018-12-13T01:20:48.941Z,25.77
2018-12-13T01:22:23.928Z,27.73
2018-12-13T01:23:58.885Z,24.82
2018-12-13T01:25:33.821Z,28.57
2018-12-13T01:27:08.766Z,29.35
2018-12-13T01:28:43.793Z,28.02
2018-12-13T01:30:18.741Z,25.68
2018-12-13T01:31:54.331Z,25.80
2018-12-13T01:33:29.279Z,27.60
2018-12-13T01:35:10.887Z,27.07
2018-12-13T01:36:45.775Z,26.50
2018-12-13T01:38:20.706Z,27.40
2018-12-13T01:39:55.670Z,27.37
2018-12-13T01:41:30.570Z,29.15
2018-12-13T01:43:05.468Z,29.00
2018-12-13T01:44:40.394Z,27.25
2018-12-13T01:46:15.614Z,25.97
2018-12-13T01:47:50.612Z,27.27
2018-12-13T01:49:25.544Z,26.77
2018-12-13T01:51:00.431Z,27.00
2018-12-13T01:52:35.431Z,26.15
2018-12-13T01:54:10.330Z,26.95
2018-12-13T01:55:45.275Z,26.68
2018-12-13T01:57:20.154Z,24.20
2018-12-13T01:58:55.137Z,25.97
2018-12-13T02:00:30.073Z,26.65
2018-12-13T02:02:05.030Z,25.90
2018-12-13T02:03:39.953Z,25.17
2018-12-13T02:05:14.931Z,29.15
2018-12-13T02:06:49.843Z,28.85
2018-12-13T02:08:24.983Z,28.23
2018-12-13T02:09:59.972Z,27.45
2018-12-13T02:11:34.934Z,27.55
2018-12-13T02:13:09.863Z,27.60
2018-12-13T02:14:44.853Z,26.62
2018-12-13T02:16:19.817Z,27.02
2018-12-13T02:17:54.722Z,31.20
2018-12-13T02:19:29.627Z,28.40
2018-12-13T02:21:04.952Z,27.27
2018-12-13T02:22:39.887Z,27.20
2018-12-13T02:24:14.928Z,26.75
2018-12-13T02:25:49.888Z,27.30
2018-12-13T02:27:24.839Z,29.50
2018-12-13T02:28:59.819Z,27.95
2018-12-13T02:30:34.800Z,27.80
2018-12-13T02:32:09.879Z,27.00
2018-12-13T02:33:44.884Z,27.58
2018-12-13T02:35:25.995Z,27.00
2018-12-13T02:37:06.001Z,26.35
2018-12-13T02:38:37.893Z,26.95
2018-12-13T02:40:12.818Z,28.17
2018-12-13T02:41:47.767Z,26.05
2018-12-13T02:43:22.751Z,27.00
2018-12-13T02:44:57.730Z,25.15
2018-12-13T02:46:32.718Z,27.07
2018-12-13T02:48:07.699Z,25.60
2018-12-13T02:49:42.928Z,27.27
2018-12-13T02:51:17.963Z,26.20
2018-12-13T02:52:52.836Z,27.30
2018-12-13T02:54:27.739Z,26.15
2018-12-13T02:56:02.689Z,26.87
2018-12-13T02:57:37.605Z,25.72
2018-12-13T02:59:12.583Z,28.12
2018-12-13T03:00:47.525Z,27.07
2018-12-13T03:02:22.451Z,26.82
2018-12-13T03:03:57.577Z,28.27
2018-12-13T03:05:32.514Z,28.67
2018-12-13T03:07:13.670Z,26.62
2018-12-13T03:08:44.441Z,27.30
2018-12-13T03:10:19.830Z,27.22
2018-12-13T03:11:54.739Z,27.80
2018-12-13T03:13:29.649Z,27.27
2018-12-13T03:15:04.895Z,26.95
2018-12-13T03:16:40.284Z,28.65
2018-12-13T03:18:15.222Z,28.17
2018-12-13T03:19:50.152Z,28.67
2018-12-13T03:21:25.122Z,29.12
2018-12-13T03:23:00.163Z,30.45
2018-12-13T03:24:35.118Z,28.95
2018-12-13T03:26:10.047Z,29.05
2018-12-13T03:27:45.041Z,30.10
2018-12-13T03:29:19.979Z,29.92
2018-12-13T03:30:54.861Z,30.15
2018-12-13T03:32:29.872Z,30.17
2018-12-13T03:34:04.926Z,28.85
2018-12-13T03:35:39.816Z,28.02
2018-12-13T03:37:20.622Z,29.80
2018-12-13T03:38:51.735Z,30.50
2018-12-13T03:40:26.624Z,29.95
2018-12-13T03:42:01.613Z,29.75
2018-12-13T03:43:36.538Z,30.40
2018-12-13T03:45:11.817Z,28.87
2018-12-13T03:46:46.759Z,29.42
2018-12-13T03:48:21.675Z,30.70
2018-12-13T03:49:56.604Z,31.73
2018-12-13T03:51:31.584Z,27.75
2018-12-13T03:53:06.555Z,30.20
2018-12-13T03:54:41.489Z,29.07
2018-12-13T03:56:16.844Z,29.00
2018-12-13T03:57:51.910Z,29.27
2018-12-13T03:59:26.845Z,28.62
2018-12-13T04:01:01.750Z,28.75
2018-12-13T04:02:36.796Z,27.02
2018-12-13T04:04:11.736Z,29.45
2018-12-13T04:05:46.658Z,29.25
2018-12-13T04:07:28.233Z,26.37
2018-12-13T04:09:03.535Z,27.95
2018-12-13T04:10:41.423Z,27.95
2018-12-13T04:12:16.361Z,26.00
2018-12-13T04:13:51.300Z,26.48
2018-12-13T04:15:26.267Z,28.17
2018-12-13T04:17:01.246Z,28.73
2018-12-13T04:18:36.165Z,29.12
2018-12-13T04:20:11.112Z,28.35
2018-12-13T04:21:46.040Z,27.82
2018-12-13T04:23:21.072Z,27.37
2018-12-13T04:24:55.969Z,28.92
2018-12-13T04:26:30.860Z,28.23
2018-12-13T04:28:05.828Z,26.15
2018-12-13T04:29:40.813Z,28.57
2018-12-13T04:31:15.730Z,29.45
2018-12-13T04:32:50.691Z,28.50
2018-12-13T04:34:25.614Z,27.73
2018-12-13T04:36:00.582Z,29.77
2018-12-13T04:37:35.520Z,27.98
2018-12-13T04:39:10.812Z,29.60
2018-12-13T04:40:45.694Z,29.00
2018-12-13T04:42:20.627Z,30.40
2018-12-13T04:43:55.570Z,31.20
2018-12-13T04:45:30.543Z,30.68
2018-12-13T04:47:05.720Z,30.48
2018-12-13T04:48:40.662Z,30.60
2018-12-13T04:50:16.009Z,31.55
2018-12-13T04:51:50.956Z,29.32
2018-12-13T04:53:25.879Z,31.07
2018-12-13T04:55:00.815Z,32.73
2018-12-13T04:56:35.791Z,29.57
2018-12-13T04:58:10.731Z,30.50
2018-12-13T04:59:45.611Z,30.55
2018-12-13T05:01:20.535Z,32.00
2018-12-13T05:02:55.524Z,31.10
2018-12-13T05:04:30.419Z,34.53
2018-12-13T05:06:05.379Z,34.60
2018-12-13T05:07:41.807Z,33.90
2018-12-13T05:09:17.016Z,31.75
2018-12-13T05:10:54.293Z,31.33
2018-12-13T05:12:29.330Z,31.82
2018-12-13T05:14:04.337Z,31.10
2018-12-13T05:15:39.380Z,30.65
2018-12-13T05:17:14.381Z,32.13
2018-12-13T05:18:49.559Z,30.52
2018-12-13T05:20:24.464Z,30.92
2018-12-13T05:21:59.447Z,31.52
2018-12-13T05:23:34.324Z,30.23
2018-12-13T05:25:09.268Z,31.52
2018-12-13T05:26:44.507Z,29.07
2018-12-13T05:28:19.511Z,28.52
2018-12-13T05:29:54.452Z,28.77
2018-12-13T05:31:29.528Z,29.82
2018-12-13T05:33:04.502Z,31.35
2018-12-13T05:34:39.456Z,28.57
2018-12-13T05:36:14.366Z,27.22
2018-12-13T05:37:49.273Z,29.20
2018-12-13T05:39:24.178Z,29.90
2018-12-13T05:40:59.187Z,29.80
2018-12-13T05:42:34.117Z,28.73
2018-12-13T05:44:09.091Z,29.35
2018-12-13T05:45:43.984Z,28.90
2018-12-13T05:47:18.915Z,27.85
2018-12-13T05:48:54.610Z,30.12
2018-12-13T05:50:29.834Z,29.35
2018-12-13T05:52:04.759Z,27.87
2018-12-13T05:53:39.752Z,29.12
2018-12-13T05:55:14.831Z,28.80
2018-12-13T05:56:49.766Z,28.95
2018-12-13T05:58:27.734Z,29.37
2018-12-13T06:00:02.684Z,28.45
2018-12-13T06:01:37.609Z,29.15
2018-12-13T06:03:12.561Z,29.87
2018-12-13T06:04:47.538Z,29.30
2018-12-13T06:06:22.428Z,29.40
2018-12-13T06:07:57.375Z,30.60
2018-12-13T06:09:32.299Z,28.92
2018-12-13T06:11:07.388Z,30.08
2018-12-13T06:12:42.328Z,29.42
2018-12-13T06:14:17.235Z,28.87
2018-12-13T06:15:52.175Z,29.60
2018-12-13T06:17:27.119Z,26.55
2018-12-13T06:19:01.980Z,29.57
2018-12-13T06:20:37.195Z,29.82
2018-12-13T06:22:12.186Z,27.87
2018-12-13T06:23:47.115Z,28.50
2018-12-13T06:25:22.000Z,27.93
2018-12-13T06:26:57.684Z,30.60
2018-12-13T06:28:32.601Z,28.35
2018-12-13T06:30:08.110Z,27.73
2018-12-13T06:31:43.088Z,28.62
2018-12-13T06:33:24.685Z,28.40
2018-12-13T06:34:55.124Z,27.25
2018-12-13T06:36:30.045Z,28.98
2018-12-13T06:38:05.031Z,30.17
2018-12-13T06:39:40.028Z,26.68
2018-12-13T06:41:14.912Z,28.80
2018-12-13T06:42:49.838Z,29.18
2018-12-13T06:44:24.755Z,29.80
2018-12-13T06:45:59.662Z,28.00
2018-12-13T06:47:34.552Z,29.35
2018-12-13T06:49:09.551Z,29.77
2018-12-13T06:50:44.463Z,30.55
2018-12-13T06:52:19.516Z,28.05
2018-12-13T06:53:54.423Z,28.98
2018-12-13T06:55:29.399Z,28.92
2018-12-13T06:57:04.310Z,30.05
2018-12-13T06:58:39.233Z,31.00
2018-12-13T07:00:14.255Z,29.45
2018-12-13T07:01:49.264Z,29.02
2018-12-13T07:03:24.227Z,28.92
2018-12-13T07:04:59.099Z,29.82
2018-12-13T07:06:34.158Z,29.57
2018-12-13T07:08:09.093Z,31.48
2018-12-13T07:09:50.488Z,29.52
2018-12-13T07:11:25.400Z,28.52
2018-12-13T07:13:00.336Z,27.80
2018-12-13T07:14:35.264Z,29.75
2018-12-13T07:16:10.188Z,30.10
2018-12-13T07:17:45.170Z,29.48
2018-12-13T07:19:20.099Z,29.65
2018-12-13T07:20:55.022Z,29.63
2018-12-13T07:22:29.987Z,30.15
2018-12-13T07:24:05.029Z,29.57
2018-12-13T07:25:39.972Z,27.77
2018-12-13T07:27:14.963Z,29.92
2018-12-13T07:28:49.872Z,29.37
2018-12-13T07:30:24.860Z,30.80
2018-12-13T07:31:59.835Z,30.88
2018-12-13T07:33:34.789Z,28.35
2018-12-13T07:35:09.868Z,27.25
2018-12-13T07:36:44.798Z,29.00
2018-12-13T07:38:19.779Z,28.60
2018-12-13T07:39:54.661Z,28.30
2018-12-13T07:41:29.528Z,29.25
2018-12-13T07:43:04.451Z,30.10
2018-12-13T07:44:39.422Z,29.15
2018-12-13T07:46:14.345Z,30.68
2018-12-13T07:47:49.254Z,31.42
2018-12-13T07:49:24.203Z,29.80
2018-12-13T07:50:59.195Z,30.75
2018-12-13T07:52:34.095Z,30.70
2018-12-13T07:54:09.023Z,32.28
2018-12-13T07:55:43.950Z,33.10
2018-12-13T07:57:18.917Z,32.17
2018-12-13T07:58:53.836Z,32.65
2018-12-13T08:00:28.781Z,32.40
2018-12-13T08:02:03.735Z,32.17
2018-12-13T08:03:38.691Z,29.30
2018-12-13T08:05:13.648Z,29.60
2018-12-13T08:06:48.602Z,29.90
2018-12-13T08:08:23.539Z,29.23
2018-12-13T08:09:58.468Z,29.70
2018-12-13T08:11:33.368Z,28.27
2018-12-13T08:13:08.347Z,28.38
2018-12-13T08:14:43.256Z,29.63
2018-12-13T08:16:18.216Z,29.27
2018-12-13T08:17:53.141Z,29.90
2018-12-13T08:19:28.052Z,29.12
2018-12-13T08:21:03.107Z,28.30
2018-12-13T08:22:44.495Z,28.65
2018-12-13T08:24:19.420Z,27.42
2018-12-13T08:25:54.441Z,29.65
2018-12-13T08:27:29.460Z,36.30
2018-12-13T08:29:04.455Z,28.20
2018-12-13T08:30:39.557Z,26.60
2018-12-13T08:32:14.436Z,27.00
2018-12-13T08:33:49.584Z,28.80
2018-12-13T08:35:24.487Z,28.10
2018-12-13T08:36:59.364Z,27.45
2018-12-13T08:38:34.308Z,28.98
2018-12-13T08:40:09.492Z,28.70
2018-12-13T08:41:44.407Z,28.23
2018-12-13T08:43:19.323Z,27.60
2018-12-13T08:44:54.264Z,29.57
2018-12-13T08:46:29.279Z,28.92
2018-12-13T08:48:04.243Z,27.22
2018-12-13T08:49:39.135Z,28.07
2018-12-13T08:51:14.124Z,29.10
2018-12-13T08:52:49.170Z,30.30
2018-12-13T08:54:24.097Z,29.30
2018-12-13T08:55:59.000Z,28.75
2018-12-13T08:57:34.040Z,28.00
2018-12-13T08:59:09.076Z,27.93
2018-12-13T09:00:43.990Z,27.30
2018-12-13T09:02:19.105Z,28.17
2018-12-13T09:03:54.042Z,27.17
2018-12-13T09:05:29.039Z,28.23
2018-12-13T09:07:03.939Z,27.27
2018-12-13T09:08:38.947Z,27.82
2018-12-13T09:10:13.872Z,27.27
2018-12-13T09:11:48.910Z,28.15
2018-12-13T09:13:24.826Z,26.87
2018-12-13T09:15:00.287Z,27.45
2018-12-13T09:16:35.828Z,26.10
2018-12-13T09:18:12.243Z,26.65
2018-12-13T09:19:54.402Z,26.62
2018-12-13T09:21:29.640Z,26.20
2018-12-13T09:23:05.070Z,25.95
2018-12-13T09:24:40.589Z,27.62
2018-12-13T09:26:16.870Z,26.48
2018-12-13T09:27:52.130Z,26.52
2018-12-13T09:29:27.369Z,28.35
2018-12-13T09:31:02.751Z,26.17
2018-12-13T09:32:38.032Z,26.82
2018-12-13T09:34:13.498Z,26.20
2018-12-13T09:35:49.974Z,26.50
2018-12-13T09:37:28.514Z,25.23
2018-12-13T09:39:04.383Z,25.43
2018-12-13T09:40:39.657Z,25.45
2018-12-13T09:42:14.851Z,25.17
2018-12-13T09:43:50.157Z,26.68
2018-12-13T09:45:25.523Z,25.75
2018-12-13T09:47:00.708Z,26.23
2018-12-13T09:48:35.925Z,25.88
2018-12-13T09:50:11.896Z,26.23
2018-12-13T09:51:48.337Z,26.57
2018-12-13T09:53:23.361Z,27.67
2018-12-13T09:54:58.411Z,27.13
2018-12-13T09:56:33.583Z,28.47
2018-12-13T09:58:08.482Z,26.40
2018-12-13T09:59:43.396Z,27.32
2018-12-13T10:01:57.118Z,28.00
2018-12-13T10:03:32.625Z,26.35
2018-12-13T10:05:08.277Z,27.37
2018-12-13T10:06:43.634Z,27.73
2018-12-13T10:08:19.122Z,26.60
2018-12-13T10:09:54.316Z,25.95
2018-12-13T10:11:29.536Z,27.48
2018-12-13T10:13:04.768Z,28.10
2018-12-13T10:14:39.951Z,27.73
2018-12-13T10:16:15.115Z,28.47
2018-12-13T10:17:50.274Z,26.42
2018-12-13T10:19:25.540Z,25.48
2018-12-13T10:21:00.841Z,25.62
2018-12-13T10:22:35.959Z,25.97
2018-12-13T10:24:11.118Z,25.40
2018-12-13T10:25:46.248Z,23.55
2018-12-13T10:27:22.658Z,22.87
2018-12-13T10:28:57.739Z,24.95
2018-12-13T10:30:32.884Z,24.00
2018-12-13T10:32:08.880Z,24.27
2018-12-13T10:33:44.036Z,23.87
2018-12-13T10:35:19.240Z,24.95
2018-12-13T10:36:54.305Z,22.45
2018-12-13T10:38:29.382Z,24.07
2018-12-13T10:40:05.254Z,20.75
2018-12-13T10:41:40.195Z,19.80
2018-12-13T10:43:15.124Z,20.02
2018-12-13T10:44:50.067Z,21.00
2018-12-13T10:46:25.007Z,21.65
2018-12-13T10:47:59.914Z,20.77
2018-12-13T10:49:35.052Z,19.92
2018-12-13T10:51:09.919Z,19.70
2018-12-13T10:52:44.869Z,19.05
2018-12-13T10:54:19.791Z,19.60
2018-12-13T10:55:54.825Z,18.57
2018-12-13T10:57:29.787Z,18.17
2018-12-13T10:59:04.732Z,19.57
2018-12-13T11:00:43.743Z,20.70
2018-12-13T11:02:24.007Z,18.17
2018-12-13T11:03:58.918Z,19.92
2018-12-13T11:05:33.848Z,19.02
2018-12-13T11:07:08.788Z,19.52
2018-12-13T11:08:43.774Z,17.48
2018-12-13T11:10:18.680Z,19.95
2018-12-13T11:11:53.567Z,18.65
2018-12-13T11:13:28.516Z,16.90
2018-12-13T11:15:03.516Z,16.67
2018-12-13T11:16:38.465Z,18.70
2018-12-13T11:18:13.424Z,18.57
2018-12-13T11:19:48.338Z,17.62
2018-12-13T11:21:23.316Z,18.45
2018-12-13T11:22:58.318Z,18.67
2018-12-13T11:24:33.375Z,19.50
2018-12-13T11:26:08.306Z,18.85
2018-12-13T11:28:31.148Z,20.25
2018-12-13T11:30:38.563Z,18.62
2018-12-13T11:32:13.505Z,18.82
2018-12-13T11:33:48.504Z,18.82
2018-12-13T11:35:23.496Z,18.75
2018-12-13T11:36:58.459Z,20.92
2018-12-13T11:38:33.424Z,19.42
2018-12-13T11:40:08.500Z,20.20
2018-12-13T11:41:43.451Z,19.75
2018-12-13T11:43:18.441Z,19.62
2018-12-13T11:44:53.369Z,18.17
2018-12-13T11:46:28.327Z,18.95
2018-12-13T11:48:03.265Z,18.98
2018-12-13T11:49:38.264Z,17.57
2018-12-13T11:51:13.184Z,19.12
2018-12-13T11:52:48.106Z,18.52
2018-12-13T11:54:43.699Z,18.57
2018-12-13T11:56:18.635Z,18.37
2018-12-13T11:57:53.568Z,18.67
2018-12-13T11:59:28.491Z,20.27
2018-12-13T12:01:03.524Z,19.50
2018-12-13T12:02:38.440Z,19.67
2018-12-13T12:04:13.362Z,19.17
2018-12-13T12:05:48.285Z,19.37
2018-12-13T12:07:23.319Z,18.82
2018-12-13T12:08:58.243Z,19.02
2018-12-13T12:10:33.328Z,19.65
2018-12-13T12:12:08.243Z,21.27
2018-12-13T12:13:43.212Z,20.75
2018-12-13T12:15:18.278Z,20.60
2018-12-13T12:16:53.207Z,21.12
2018-12-13T12:18:28.139Z,20.23
2018-12-13T12:20:03.297Z,19.80
2018-12-13T12:21:38.300Z,19.73
2018-12-13T12:23:13.304Z,20.37
2018-12-13T12:24:48.296Z,20.68
2018-12-13T12:26:23.255Z,19.87
2018-12-13T12:27:58.171Z,22.80
2018-12-13T12:29:33.170Z,21.00
2018-12-13T12:31:08.108Z,21.00
2018-12-13T12:32:43.032Z,20.77
2018-12-13T12:34:18.045Z,20.43
2018-12-13T12:35:53.077Z,20.37
2018-12-13T12:37:28.069Z,21.12
2018-12-13T12:39:03.032Z,21.70
2018-12-13T12:40:37.951Z,19.82
2018-12-13T12:42:12.912Z,21.15
2018-12-13T12:43:47.812Z,21.00
2018-12-13T12:45:22.747Z,20.80
2018-12-13T12:46:57.627Z,19.50
2018-12-13T12:48:32.632Z,19.73
2018-12-13T12:50:09.409Z,19.12
2018-12-13T12:51:44.351Z,18.32
2018-12-13T12:53:19.261Z,18.60
2018-12-13T12:54:54.297Z,19.07
2018-12-13T12:56:29.284Z,18.82
2018-12-13T12:58:04.275Z,20.20
2018-12-13T12:59:39.183Z,19.52
2018-12-13T13:01:14.175Z,18.90
2018-12-13T13:02:49.266Z,17.62
2018-12-13T13:04:24.212Z,17.82
2018-12-13T13:05:59.116Z,17.92
2018-12-13T13:07:34.085Z,18.02
2018-12-13T13:09:10.123Z,17.55
2018-12-13T13:10:46.552Z,17.90
2018-12-13T13:12:22.148Z,20.05
2018-12-13T13:13:57.358Z,19.02
2018-12-13T13:15:32.444Z,17.20
2018-12-13T13:17:07.552Z,18.60
2018-12-13T13:18:42.651Z,18.65
2018-12-13T13:20:17.900Z,17.35
2018-12-13T13:21:53.069Z,16.52
2018-12-13T13:23:28.172Z,16.40
2018-12-13T13:25:03.303Z,17.52
2018-12-13T13:26:39.130Z,18.23
2018-12-13T13:28:14.265Z,18.02
2018-12-13T13:29:49.360Z,18.27
2018-12-13T13:31:24.552Z,18.40
2018-12-13T13:32:59.753Z,16.80
2018-12-13T13:34:34.912Z,18.07
2018-12-13T13:36:10.291Z,17.20
2018-12-13T13:37:50.482Z,17.42
2018-12-13T13:39:31.350Z,17.27
2018-12-13T13:41:03.154Z,17.65
2018-12-13T13:42:38.287Z,18.10
2018-12-13T13:44:13.715Z,17.73
2018-12-13T13:45:49.014Z,19.35
2018-12-13T13:47:24.933Z,18.32
2018-12-13T13:49:00.111Z,18.73
2018-12-13T13:50:35.230Z,18.25
2018-12-13T13:52:10.432Z,19.25
2018-12-13T13:53:45.528Z,20.27
2018-12-13T13:55:20.687Z,19.82
2018-12-13T13:56:55.814Z,19.90
2018-12-13T13:58:31.076Z,21.37
2018-12-13T14:00:09.665Z,19.67
2018-12-13T14:01:44.757Z,21.17
2018-12-13T14:03:19.891Z,19.95
2018-12-13T14:04:55.075Z,18.70
2018-12-13T14:06:30.225Z,20.17
2018-12-13T14:08:05.364Z,19.90
2018-12-13T14:09:40.513Z,20.35
2018-12-13T14:11:15.680Z,20.00
2018-12-13T14:12:50.836Z,19.67
2018-12-13T14:14:25.938Z,19.27
2018-12-13T14:16:01.042Z,19.55
2018-12-13T14:17:36.237Z,20.32
2018-12-13T14:19:11.391Z,18.73
2018-12-13T14:20:46.575Z,18.80
2018-12-13T14:22:21.673Z,18.32
2018-12-13T14:23:56.865Z,18.98
2018-12-13T14:25:31.984Z,18.85
2018-12-13T14:27:07.321Z,19.37
2018-12-13T14:28:42.489Z,20.05
2018-12-13T14:30:17.682Z,18.92
2018-12-13T14:31:52.830Z,19.00
2018-12-13T14:33:27.948Z,18.30
2018-12-13T14:35:03.060Z,20.52
2018-12-13T14:36:38.893Z,18.82
2018-12-13T14:38:14.177Z,18.87
2018-12-13T14:39:49.292Z,18.37
2018-12-13T14:41:24.368Z,18.17
2018-12-13T14:42:59.587Z,17.67
2018-12-13T14:44:34.704Z,18.50
2018-12-13T14:46:09.797Z,19.02
2018-12-13T14:47:45.462Z,18.52
2018-12-13T14:49:20.618Z,17.77
2018-12-13T14:50:55.759Z,18.95
2018-12-13T14:52:30.911Z,17.73
2018-12-13T14:54:06.171Z,17.85
2018-12-13T14:55:41.374Z,18.62
2018-12-13T14:57:16.505Z,18.80
2018-12-13T14:58:52.439Z,19.82
2018-12-13T15:00:27.577Z,18.95
2018-12-13T15:02:02.817Z,18.82
2018-12-13T15:03:37.896Z,19.85
2018-12-13T15:05:13.433Z,19.62
2018-12-13T15:06:48.510Z,17.48
2018-12-13T15:08:23.733Z,18.27
2018-12-13T15:09:58.818Z,17.80
2018-12-13T15:11:33.928Z,18.55
2018-12-13T15:13:09.062Z,18.20
2018-12-13T15:14:44.312Z,18.85
2018-12-13T15:16:19.411Z,18.57
2018-12-13T15:17:54.513Z,18.98
2018-12-13T15:19:29.627Z,18.73
2018-12-13T15:21:09.468Z,17.42
2018-12-13T15:22:44.661Z,16.62
2018-12-13T15:24:19.844Z,18.55
2018-12-13T15:25:54.964Z,19.30
2018-12-13T15:27:30.160Z,18.40
2018-12-13T15:29:05.305Z,19.45
2018-12-13T15:30:40.416Z,18.10
2018-12-13T15:32:15.489Z,18.80
2018-12-13T15:33:50.676Z,18.45
2018-12-13T15:35:25.775Z,17.57
2018-12-13T15:37:00.876Z,18.10
2018-12-13T15:38:36.084Z,19.55
2018-12-13T15:40:11.317Z,19.17
2018-12-13T15:41:46.446Z,19.62
2018-12-13T15:43:21.600Z,20.10
2018-12-13T15:44:56.733Z,19.85
2018-12-13T15:46:31.948Z,20.23
2018-12-13T15:48:07.229Z,19.32
2018-12-13T15:49:42.580Z,18.55
2018-12-13T15:51:17.654Z,19.40
2018-12-13T15:52:52.784Z,19.12
2018-12-13T15:54:27.900Z,18.27
2018-12-13T15:56:03.025Z,18.87
2018-12-13T15:57:38.286Z,19.17
2018-12-13T15:59:13.484Z,18.62
2018-12-13T16:00:48.566Z,20.23
2018-12-13T16:02:23.653Z,20.62
2018-12-13T16:03:58.722Z,20.15
2018-12-13T16:05:33.873Z,19.85
2018-12-13T16:07:08.970Z,20.75
2018-12-13T16:08:44.112Z,21.00
2018-12-13T16:10:19.205Z,20.30
2018-12-13T16:11:54.404Z,19.60
2018-12-13T16:13:29.564Z,20.75
2018-12-13T16:15:05.296Z,20.23
2018-12-13T16:16:40.434Z,18.40
2018-12-13T16:18:15.633Z,18.67
2018-12-13T16:19:50.549Z,18.25
2018-12-13T16:21:25.501Z,19.05
2018-12-13T16:23:00.423Z,19.23
2018-12-13T16:24:35.472Z,18.55
2018-12-13T16:26:10.431Z,18.90
2018-12-13T16:27:45.347Z,19.02
2018-12-13T16:29:20.281Z,18.95
2018-12-13T16:30:55.234Z,18.67
2018-12-13T16:32:30.179Z,18.37
2018-12-13T16:34:05.099Z,18.45
2018-12-13T16:35:40.053Z,19.70
2018-12-13T16:37:15.052Z,19.52
2018-12-13T16:38:50.021Z,19.87
2018-12-13T16:40:24.960Z,18.95
2018-12-13T16:41:59.856Z,18.37
2018-12-13T16:43:34.789Z,19.23
2018-12-13T16:45:09.967Z,19.32
2018-12-13T16:46:44.887Z,21.00
2018-12-13T16:48:19.952Z,19.90
2018-12-13T16:49:54.855Z,21.00
2018-12-13T16:51:29.853Z,19.62
2018-12-13T16:53:07.614Z,20.08
2018-12-13T16:54:42.530Z,19.30
2018-12-13T16:56:17.431Z,19.15
2018-12-13T16:57:52.443Z,19.30
2018-12-13T16:59:27.356Z,19.87
2018-12-13T17:01:02.302Z,19.45
2018-12-13T17:02:37.206Z,19.77
2018-12-13T17:04:12.278Z,18.57
2018-12-13T17:05:47.215Z,19.23
2018-12-13T17:07:22.152Z,20.37
2018-12-13T17:08:57.108Z,19.35
2018-12-13T17:10:32.130Z,19.17
2018-12-13T17:12:07.092Z,19.42
2018-12-13T17:13:41.984Z,18.70
2018-12-13T17:15:16.913Z,19.37
2018-12-13T17:16:51.882Z,18.77
2018-12-13T17:18:26.943Z,19.65
2018-12-13T17:20:01.860Z,19.35
2018-12-13T17:21:36.783Z,19.17
2018-12-13T17:23:11.815Z,21.37
2018-12-13T17:24:46.739Z,21.25
2018-12-13T17:26:21.812Z,20.23
2018-12-13T17:27:56.772Z,20.35
2018-12-13T17:29:31.795Z,20.20
2018-12-13T17:31:13.237Z,18.42
2018-12-13T17:32:48.172Z,20.80
2018-12-13T17:34:23.074Z,20.60
2018-12-13T17:35:58.243Z,20.08
2018-12-13T17:37:33.153Z,20.37
2018-12-13T17:39:08.749Z,19.85
2018-12-13T17:40:43.692Z,21.07
2018-12-13T17:42:18.719Z,19.75
2018-12-13T17:43:53.639Z,22.30
2018-12-13T17:45:30.593Z,22.42
2018-12-13T17:47:05.629Z,22.50
2018-12-13T17:48:40.662Z,22.67
2018-12-13T17:50:15.602Z,23.70
2018-12-13T17:51:50.614Z,21.85
2018-12-13T17:53:25.622Z,22.58
2018-12-13T17:55:00.748Z,22.73
2018-12-13T17:56:35.654Z,22.22
2018-12-13T17:58:10.647Z,22.05
2018-12-13T17:59:45.574Z,21.12
2018-12-13T18:01:20.625Z,22.32
2018-12-13T18:02:55.554Z,22.20
2018-12-13T18:04:31.480Z,21.65
2018-12-13T18:06:06.429Z,23.75
2018-12-13T18:07:41.400Z,23.18
2018-12-13T18:09:16.310Z,20.55
2018-12-13T18:10:51.364Z,22.45
2018-12-13T18:12:26.325Z,23.42
2018-12-13T18:14:01.259Z,23.55
2018-12-13T18:15:36.227Z,23.90
2018-12-13T18:17:11.238Z,23.57
2018-12-13T18:18:46.172Z,22.77
2018-12-13T18:20:21.095Z,23.40
2018-12-13T18:21:56.136Z,23.83
2018-12-13T18:23:31.128Z,22.37
2018-12-13T18:25:06.348Z,23.07
2018-12-13T18:26:41.252Z,23.75
2018-12-13T18:28:16.176Z,23.50
2018-12-13T18:29:51.215Z,25.23
2018-12-13T18:31:26.209Z,23.52
2018-12-13T18:33:01.138Z,24.15
2018-12-13T18:34:36.172Z,23.25
2018-12-13T18:36:11.105Z,25.40
2018-12-13T18:37:46.071Z,24.63
2018-12-13T18:39:21.028Z,24.23
2018-12-13T18:40:55.968Z,24.63
2018-12-13T18:42:30.872Z,23.40
2018-12-13T18:44:05.982Z,26.05
2018-12-13T18:45:40.985Z,25.48
2018-12-13T18:47:15.907Z,25.65
2018-12-13T18:48:50.849Z,26.23
2018-12-13T18:50:25.760Z,25.40
2018-12-13T18:52:00.788Z,25.48
2018-12-13T18:53:35.696Z,24.82
2018-12-13T18:55:10.644Z,24.95
2018-12-13T18:56:45.526Z,25.50
2018-12-13T18:58:20.484Z,24.87
2018-12-13T18:59:55.391Z,25.77
2018-12-13T19:01:30.323Z,23.83
2018-12-13T19:03:05.241Z,23.52
2018-12-13T19:04:40.224Z,24.37
2018-12-13T19:06:15.122Z,24.10
2018-12-13T19:07:50.035Z,26.07
2018-12-13T19:09:24.960Z,24.57
2018-12-13T19:11:00.024Z,23.98
2018-12-13T19:12:35.023Z,24.25
2018-12-13T19:14:09.943Z,22.60
2018-12-13T19:15:44.920Z,26.35
2018-12-13T19:17:19.800Z,24.12
2018-12-13T19:18:58.792Z,24.23
2018-12-13T19:20:33.720Z,23.35
2018-12-13T19:22:08.655Z,24.47
2018-12-13T19:23:43.565Z,24.12
2018-12-13T19:25:18.567Z,25.43
2018-12-13T19:26:53.492Z,25.55
2018-12-13T19:28:28.432Z,24.95
2018-12-13T19:30:03.533Z,26.00
2018-12-13T19:31:38.575Z,24.72
2018-12-13T19:33:13.471Z,25.37
2018-12-13T19:34:48.471Z,25.57
2018-12-13T19:36:26.146Z,27.70
2018-12-13T19:38:01.150Z,28.50
2018-12-13T19:39:36.064Z,28.35
2018-12-13T19:41:14.007Z,27.22
2018-12-13T19:42:48.940Z,26.37
2018-12-13T19:44:23.922Z,25.82
2018-12-13T19:45:58.809Z,26.52
2018-12-13T19:47:33.760Z,26.20
2018-12-13T19:49:08.653Z,26.23
2018-12-13T19:50:43.901Z,24.95
2018-12-13T19:52:18.904Z,22.80
2018-12-13T19:53:53.839Z,23.00
2018-12-13T19:55:28.748Z,23.65
2018-12-13T19:57:03.759Z,22.77
2018-12-13T19:58:38.719Z,21.30
2018-12-13T20:00:13.683Z,22.10
2018-12-13T20:01:48.594Z,21.82
2018-12-13T20:03:23.587Z,20.23
2018-12-13T20:04:58.483Z,20.52
2018-12-13T20:06:33.379Z,20.45
2018-12-13T20:08:08.308Z,20.52
2018-12-13T20:09:43.263Z,19.87
2018-12-13T20:11:18.199Z,21.02
2018-12-13T20:12:53.099Z,20.30
2018-12-13T20:14:28.167Z,21.12
2018-12-13T20:16:03.129Z,20.52
2018-12-13T20:17:38.068Z,20.08
2018-12-13T20:19:12.992Z,19.60
2018-12-13T20:20:54.604Z,21.07
2018-12-13T20:22:29.675Z,21.48
2018-12-13T20:24:04.609Z,20.23
2018-12-13T20:25:40.019Z,20.65
2018-12-13T20:27:14.956Z,20.85
2018-12-13T20:28:49.947Z,21.82